Terminal Aerodrome Forecast
Issued by NWS

Home | Current Version | Previous Version | Text Only | Print | Product List | Glossary On
Versions: 1 2 3 4 5 6 7 8 9 10 11 12 13
000
FTUS45 KFGZ 211700
TAFSEZ
TAF
KSEZ 211737Z 2118/2218 17006KT P6SM SCT060 BKN070
     FM212100 21010G20KT P6SM SCT050 SCT080
     FM220200 VRB05KT P6SM SKC
     FM220400 04008KT P6SM SKC
     FM221600 18006KT P6SM SKC=

USA.gov is the U.S. government's official web portal to all federal, state and local government web resources and services.